Storm — LG9555 — position and weather

sailwx.info

Track history (hours):
 
Tides and Currents Weather Stations Pressure Air Temp Water Temp Dewpoint Dewpoint Depression Visibility Wind Speed Wind Dir Waves Ship Positions

Storm

Last reported at 2018-Apr-06 14:57 UTC. Time now 2018-Apr-24 01:10 UTC.
Position N 69°52' E 019°25'.
Warning: this ship's position is 17 days out of date.

Length 15 m.

Type: . MMSI: 257689600.

Date/timePositionNaut miles runAvg speedWind from/ knotsBaromVisibWave heightAir tempDewpointWater temp
2018-Apr-06 14:57N 69°52' E 019°25'0 0.0
2018-Apr-06 14:30N 69°52' E 019°25'0 0.4
2018-Apr-06 14:00N 69°52' E 019°25'4 0.8
2018-Apr-06 09:35N 69°49' E 019°26'1 9.5
2018-Apr-06 09:27N 69°48' E 019°22'4 9.6
2018-Apr-06 09:00N 69°46' E 019°12'5 9.2
2018-Apr-06 08:30N 69°42' E 019°03'2 3.8
2018-Apr-06 07:59N 69°41' E 018°60'0 0.0
2018-Apr-06 07:29N 69°41' E 018°60'0 0.0
2018-Apr-06 06:59N 69°41' E 018°60'0 0.0
2018-Apr-06 06:29N 69°41' E 018°60'0 0.0
2018-Apr-06 05:59N 69°41' E 018°60'0 0.0
2018-Apr-06 05:29N 69°41' E 018°60'0 0.0
2018-Apr-06 04:59N 69°41' E 018°60'0 0.0
2018-Apr-06 04:29N 69°41' E 018°60'0 0.0
2018-Apr-06 03:59N 69°41' E 018°60'0 0.0
2018-Apr-06 03:29N 69°41' E 018°60'0 0.0
2018-Apr-06 02:59N 69°41' E 018°60'0 0.0
2018-Apr-06 02:29N 69°41' E 018°60'0 0.0
2018-Apr-06 01:59N 69°41' E 018°60'0 0.0
2018-Apr-06 01:29N 69°41' E 018°60'0 0.0
2018-Apr-06 00:59N 69°41' E 018°60'0 0.0
2018-Apr-06 00:29N 69°41' E 018°60'0 0.0
2018-Apr-05 23:59N 69°41' E 018°60'0 0.0
2018-Apr-05 23:29N 69°41' E 018°60'0 0.0
2018-Apr-05 22:59N 69°41' E 018°60'0 0.0
2018-Apr-05 22:29N 69°41' E 018°60'0 0.0
2018-Apr-05 21:59N 69°41' E 018°60'0 0.0
2018-Apr-05 21:29N 69°41' E 018°60'0 0.0
2018-Apr-05 20:59N 69°41' E 018°60'0 0.0
2018-Apr-05 20:29N 69°41' E 018°60'0 0.0
2018-Apr-05 19:59N 69°41' E 018°60'0 0.0
2018-Apr-05 19:29N 69°41' E 018°60'0 0.0
2018-Apr-05 18:59N 69°41' E 018°60'0 0.0
2018-Apr-05 18:29N 69°41' E 018°60'0 0.0
2018-Apr-05 17:59N 69°41' E 018°60'0 0.0
2018-Apr-05 17:29N 69°41' E 018°60'0 0.0
2018-Apr-05 16:59N 69°41' E 018°60'0 0.0
2018-Apr-05 16:29N 69°41' E 018°60'0 0.0
2018-Apr-05 15:59N 69°41' E 018°60'0 0.0
2018-Apr-05 15:29N 69°41' E 018°60'0 0.0
2018-Apr-05 14:59N 69°41' E 018°60'0 0.0
2018-Apr-05 14:29N 69°41' E 018°60'0 0.0
2018-Apr-05 13:59N 69°41' E 018°60'0 0.0
2018-Apr-05 13:29N 69°41' E 018°60'0 0.0
2018-Apr-05 12:59N 69°41' E 018°60'0 0.0
2018-Apr-05 12:29N 69°41' E 018°60'0 0.0
2018-Apr-05 11:59N 69°41' E 018°60'0 0.0
2018-Apr-05 11:29N 69°41' E 018°60'0 0.0
2018-Apr-05 10:59N 69°41' E 018°60'0 0.0
2018-Apr-05 10:29N 69°41' E 018°60'0 0.0
2018-Apr-05 09:59N 69°41' E 018°60'0 0.0
2018-Apr-05 09:29N 69°41' E 018°60'0 0.0
2018-Apr-05 08:59N 69°41' E 018°60'0 0.0
2018-Apr-05 08:29N 69°41' E 018°60'0 0.0
2018-Apr-05 07:59N 69°41' E 018°60'0 0.0
2018-Apr-05 07:29N 69°41' E 018°60'0 0.0
2018-Apr-05 06:59N 69°41' E 018°60'0 0.0
2018-Apr-05 06:29N 69°41' E 018°60'0 0.0
2018-Apr-05 05:59N 69°41' E 018°60'0 0.0
2018-Apr-05 05:29N 69°41' E 018°60'0 0.0
2018-Apr-05 04:59N 69°41' E 018°60'0 0.0
2018-Apr-05 04:29N 69°41' E 018°60'0 0.0
2018-Apr-05 03:56N 69°41' E 018°60'  
Track history (hours):
 
Tides and Currents Weather Stations Pressure Air Temp Water Temp Dewpoint Dewpoint Depression Visibility Wind Speed Wind Dir Waves Ship Positions

Storm

Last reported at 2018-Apr-06 14:57 UTC. Time now 2018-Apr-24 01:10 UTC.
Position N 69°52' E 019°25'.
Warning: this ship's position is 17 days out of date.

Length 15 m.

Type: . MMSI: 257689600.

Date/timePositionNaut miles runAvg speedWind from/ knotsBaromVisibWave heightAir tempDewpointWater temp
2018-Apr-06 14:57N 69°52' E 019°25'0 0.0
2018-Apr-06 14:30N 69°52' E 019°25'0 0.4
2018-Apr-06 14:00N 69°52' E 019°25'4 0.8
2018-Apr-06 09:35N 69°49' E 019°26'1 9.5
2018-Apr-06 09:27N 69°48' E 019°22'4 9.6
2018-Apr-06 09:00N 69°46' E 019°12'5 9.2
2018-Apr-06 08:30N 69°42' E 019°03'2 3.8
2018-Apr-06 07:59N 69°41' E 018°60'0 0.0
2018-Apr-06 07:29N 69°41' E 018°60'0 0.0
2018-Apr-06 06:59N 69°41' E 018°60'0 0.0
2018-Apr-06 06:29N 69°41' E 018°60'0 0.0
2018-Apr-06 05:59N 69°41' E 018°60'0 0.0
2018-Apr-06 05:29N 69°41' E 018°60'0 0.0
2018-Apr-06 04:59N 69°41' E 018°60'0 0.0
2018-Apr-06 04:29N 69°41' E 018°60'0 0.0
2018-Apr-06 03:59N 69°41' E 018°60'0 0.0
2018-Apr-06 03:29N 69°41' E 018°60'0 0.0
2018-Apr-06 02:59N 69°41' E 018°60'0 0.0
2018-Apr-06 02:29N 69°41' E 018°60'0 0.0
2018-Apr-06 01:59N 69°41' E 018°60'0 0.0
2018-Apr-06 01:29N 69°41' E 018°60'0 0.0
2018-Apr-06 00:59N 69°41' E 018°60'0 0.0
2018-Apr-06 00:29N 69°41' E 018°60'0 0.0
2018-Apr-05 23:59N 69°41' E 018°60'0 0.0
2018-Apr-05 23:29N 69°41' E 018°60'0 0.0
2018-Apr-05 22:59N 69°41' E 018°60'0 0.0
2018-Apr-05 22:29N 69°41' E 018°60'0 0.0
2018-Apr-05 21:59N 69°41' E 018°60'0 0.0
2018-Apr-05 21:29N 69°41' E 018°60'0 0.0
2018-Apr-05 20:59N 69°41' E 018°60'0 0.0
2018-Apr-05 20:29N 69°41' E 018°60'0 0.0
2018-Apr-05 19:59N 69°41' E 018°60'0 0.0
2018-Apr-05 19:29N 69°41' E 018°60'0 0.0
2018-Apr-05 18:59N 69°41' E 018°60'0 0.0
2018-Apr-05 18:29N 69°41' E 018°60'0 0.0
2018-Apr-05 17:59N 69°41' E 018°60'0 0.0
2018-Apr-05 17:29N 69°41' E 018°60'0 0.0
2018-Apr-05 16:59N 69°41' E 018°60'0 0.0
2018-Apr-05 16:29N 69°41' E 018°60'0 0.0
2018-Apr-05 15:59N 69°41' E 018°60'0 0.0
2018-Apr-05 15:29N 69°41' E 018°60'0 0.0
2018-Apr-05 14:59N 69°41' E 018°60'0 0.0
2018-Apr-05 14:29N 69°41' E 018°60'0 0.0
2018-Apr-05 13:59N 69°41' E 018°60'0 0.0
2018-Apr-05 13:29N 69°41' E 018°60'0 0.0
2018-Apr-05 12:59N 69°41' E 018°60'0 0.0
2018-Apr-05 12:29N 69°41' E 018°60'0 0.0
2018-Apr-05 11:59N 69°41' E 018°60'0 0.0
2018-Apr-05 11:29N 69°41' E 018°60'0 0.0
2018-Apr-05 10:59N 69°41' E 018°60'0 0.0
2018-Apr-05 10:29N 69°41' E 018°60'0 0.0
2018-Apr-05 09:59N 69°41' E 018°60'0 0.0
2018-Apr-05 09:29N 69°41' E 018°60'0 0.0
2018-Apr-05 08:59N 69°41' E 018°60'0 0.0
2018-Apr-05 08:29N 69°41' E 018°60'0 0.0
2018-Apr-05 07:59N 69°41' E 018°60'0 0.0
2018-Apr-05 07:29N 69°41' E 018°60'0 0.0
2018-Apr-05 06:59N 69°41' E 018°60'0 0.0
2018-Apr-05 06:29N 69°41' E 018°60'0 0.0
2018-Apr-05 05:59N 69°41' E 018°60'0 0.0
2018-Apr-05 05:29N 69°41' E 018°60'0 0.0
2018-Apr-05 04:59N 69°41' E 018°60'0 0.0
2018-Apr-05 04:29N 69°41' E 018°60'0 0.0
2018-Apr-05 03:56N 69°41' E 018°60'  

Dump ship's entire track history